CheckWX is a tool to help pilots better visualize weather data.  It is not intended as a substitute for an official pre-flight weather briefing.

01:59:06 UTC

KBFF TAF
Western Nebraska Regional / William B Heilig Field Airport
Scottsbluff, Nebraska, USA
KBFF 182320Z 1900/1924 32007KT P6SM SCT120 FM191500 32012G23KT P6SM SCT120

Mar-19@
00:00 UTC

Mar-19 @ 00:00 UTC

Mar-19@
15:00 UTC

Mar-19 @ 15:00 UTC

KBFF 182320Z 1900/1924 32007KT P6SM SCT120
Wind
  • 320° at 7 KTS
Cloud Levels
  • Scattered at 12,000' AGL

Mar-19@
15:00 UTC

Mar-19 @ 15:00 UTC

Mar-20@
00:00 UTC

Mar-20 @ 00:00 UTC

FM191500 32012G23KT P6SM SCT120

From

From Standard forecast or significant change

Wind
  • 320° at 12 KTS
  • {Gusting to 23 KTS
Cloud Levels
  • Scattered at 12,000' AGL